Time;durP1;ratioP1;P1;durP2;ratioP2;P2;SDS_P1;SDS_P2;PMS_P1;PMS_P2;Temp;Humidity;BMP_temperature;BMP_pressure;BME280_temperature;BME280_humidity;BME280_pressure;Samples;Min_cycle;Max_cycle;Signal;HPM_P1;HPM_P2
2023/07/15 00:00:15;;;;;;;;;;;;;;;27.08;30.73;99519.06;4842133;29;7231;-74
2023/07/15 00:02:43;;;;;;;;;;;;;;;27.12;30.88;99518.03;4840989;29;6870;-71
2023/07/15 00:05:20;;;;;;;;;;;;;;;27.15;30.36;99517.94;4857527;29;7028;-71
2023/07/15 00:07:48;;;;;;;;;;;;;;;27.21;30.28;99519.50;4858041;29;7379;-71
2023/07/15 00:10:15;;;;;;;;;;;;;;;27.23;30.28;99520.28;4854044;29;6980;-74
2023/07/15 00:12:41;;;;;;;;;;;;;;;27.26;30.20;99523.69;4857216;29;9035;-72
2023/07/15 00:15:09;;;;;;;;;;;;;;;27.30;30.37;99521.78;4858213;29;6786;-70
2023/07/15 00:17:35;;;;;;;;;;;;;;;27.30;29.98;99520.00;4860640;29;6805;-74
2023/07/15 00:20:00;;;;;;;;;;;;;;;27.31;29.89;99519.09;4860738;29;6923;-70
2023/07/15 00:22:26;;;;;;;;;;;;;;;27.30;30.04;99517.38;4859042;29;6841;-72
2023/07/15 00:24:51;;;;;;;;;;;;;;;27.30;30.57;99509.50;4860112;29;6772;-71
2023/07/15 00:27:17;;;;;;;;;;;;;;;27.28;30.13;99505.19;4856716;29;6944;-73
2023/07/15 00:29:42;;;;;;;;;;;;;;;27.26;30.31;99500.00;4844680;29;6968;-73
2023/07/15 00:32:12;;;;;;;;;;;;;;;27.26;30.31;99504.38;4857246;29;6800;-73
2023/07/15 00:34:37;;;;;;;;;;;;;;;27.24;30.22;99499.22;4847460;29;7210;-71
2023/07/15 00:37:03;;;;;;;;;;;;;;;27.21;30.10;99501.94;4853448;29;7136;-74
2023/07/15 00:39:29;;;;;;;;;;;;;;;27.18;30.49;99496.78;4842120;29;6938;-74
2023/07/15 00:41:58;;;;;;;;;;;;;;;27.13;30.22;99494.31;4842197;29;6851;-72
2023/07/15 00:44:23;;;;;;;;;;;;;;;27.08;30.22;99490.97;4838355;29;7376;-72
2023/07/15 00:47:03;;;;;;;;;;;;;;;27.06;30.40;99498.06;4843513;29;7249;-73
2023/07/15 00:49:31;;;;;;;;;;;;;;;27.00;30.48;99482.53;4842823;29;6809;-73
2023/07/15 00:52:09;;;;;;;;;;;;;;;26.97;30.49;99488.75;4857955;29;7223;-72
2023/07/15 00:54:37;;;;;;;;;;;;;;;26.93;30.76;99491.53;4856286;29;7282;-71
2023/07/15 00:57:04;;;;;;;;;;;;;;;26.90;30.70;99492.47;4850688;29;7013;-73
2023/07/15 00:59:31;;;;;;;;;;;;;;;26.92;30.64;99493.28;4864970;29;6804;-71
2023/07/15 01:01:57;;;;;;;;;;;;;;;26.92;30.59;99484.56;4845197;29;6785;-72
2023/07/15 01:04:22;;;;;;;;;;;;;;;26.93;30.31;99487.09;4842637;29;6977;-71
2023/07/15 01:06:48;;;;;;;;;;;;;;;26.95;30.62;99485.31;4842372;29;7108;-71
2023/07/15 01:09:14;;;;;;;;;;;;;;;26.98;30.52;99489.56;4842230;29;6851;-71
2023/07/15 01:11:40;;;;;;;;;;;;;;;26.98;30.49;99489.56;4842097;29;6797;-73
2023/07/15 01:14:09;;;;;;;;;;;;;;;26.98;30.51;99486.94;4842175;29;6788;-73
2023/07/15 01:16:35;;;;;;;;;;;;;;;26.98;30.41;99486.94;4829610;29;7004;-71
2023/07/15 01:19:00;;;;;;;;;;;;;;;26.96;30.57;99481.78;4845015;29;6781;-71
2023/07/15 01:21:28;;;;;;;;;;;;;;;26.94;30.75;99483.56;4856110;29;7002;-72
2023/07/15 01:23:53;;;;;;;;;;;;;;;26.91;30.73;99483.69;4842154;29;6824;-72
2023/07/15 01:26:19;;;;;;;;;;;;;;;26.87;30.88;99477.63;4849050;29;6916;-71
2023/07/15 01:28:45;;;;;;;;;;;;;;;26.83;30.88;99475.16;4824730;29;6996;-73
2023/07/15 01:31:10;;;;;;;;;;;;;;;26.81;31.01;99477.00;4836094;29;6796;-71
2023/07/15 01:33:36;;;;;;;;;;;;;;;26.74;31.03;99476.34;4825407;29;7177;-71
2023/07/15 01:36:04;;;;;;;;;;;;;;;26.68;30.77;99472.16;4841389;29;6792;-71
2023/07/15 01:38:30;;;;;;;;;;;;;;;26.61;31.62;99474.16;4857695;29;8184;-72
2023/07/15 01:40:55;;;;;;;;;;;;;;;26.56;31.07;99480.47;4837426;29;6761;-72
2023/07/15 01:43:21;;;;;;;;;;;;;;;26.50;31.24;99483.28;4839378;29;6957;-70
2023/07/15 01:45:46;;;;;;;;;;;;;;;26.43;31.52;99472.97;4842370;29;6794;-72
2023/07/15 01:48:12;;;;;;;;;;;;;;;26.38;31.78;99485.41;4830934;29;8160;-71
2023/07/15 01:50:39;;;;;;;;;;;;;;;26.35;31.65;99480.22;4841184;29;7297;-70
2023/07/15 01:53:05;;;;;;;;;;;;;;;26.33;31.51;99482.06;4854133;29;8104;-70
2023/07/15 01:55:30;;;;;;;;;;;;;;;26.32;31.55;99485.59;4854669;29;7004;-71
2023/07/15 01:57:56;;;;;;;;;;;;;;;26.33;31.88;99482.06;4854428;29;6776;-71
2023/07/15 02:00:22;;;;;;;;;;;;;;;26.39;31.46;99475.75;4854424;29;7274;-73
2023/07/15 02:02:48;;;;;;;;;;;;;;;26.45;31.56;99470.31;4822222;29;7015;-71
2023/07/15 02:05:13;;;;;;;;;;;;;;;26.50;31.47;99472.78;4839485;29;6945;-72
2023/07/15 02:07:39;;;;;;;;;;;;;;;26.54;31.60;99467.38;4841521;29;6913;-72
2023/07/15 02:10:04;;;;;;;;;;;;;;;26.61;31.06;99470.66;4838041;29;6769;-73
2023/07/15 02:12:30;;;;;;;;;;;;;;;26.63;31.07;99471.44;4861508;29;7187;-73
2023/07/15 02:14:55;;;;;;;;;;;;;;;26.68;31.02;99466.03;4839449;29;6781;-73
2023/07/15 02:17:22;;;;;;;;;;;;;;;26.71;30.96;99472.06;4841018;29;6928;-72
2023/07/15 02:19:49;;;;;;;;;;;;;;;26.73;30.99;99464.97;4840668;29;6986;-71
2023/07/15 02:22:14;;;;;;;;;;;;;;;26.76;30.96;99464.88;4855953;29;6996;-71
2023/07/15 02:24:40;;;;;;;;;;;;;;;26.81;31.10;99474.38;4825573;29;6959;-72
2023/07/15 02:27:05;;;;;;;;;;;;;;;26.81;30.91;99469.97;4840789;29;6852;-72
2023/07/15 02:29:32;;;;;;;;;;;;;;;26.84;31.08;99466.38;4842159;29;7892;-73
2023/07/15 02:31:57;;;;;;;;;;;;;;;26.84;30.74;99461.97;4840243;29;6909;-71
2023/07/15 02:34:23;;;;;;;;;;;;;;;26.84;30.75;99471.63;4835213;29;7031;-73
2023/07/15 02:36:48;;;;;;;;;;;;;;;26.82;31.14;99470.81;4842531;29;6785;-73
2023/07/15 02:39:14;;;;;;;;;;;;;;;26.80;30.81;99467.41;4838173;29;6919;-75
2023/07/15 02:41:39;;;;;;;;;;;;;;;26.80;30.90;99467.41;4853379;29;7194;-75
2023/07/15 02:44:05;;;;;;;;;;;;;;;26.81;30.39;99469.13;4845590;29;7364;-74
2023/07/15 02:46:31;;;;;;;;;;;;;;;26.82;31.01;99462.94;4827106;29;7187;-74
2023/07/15 02:48:56;;;;;;;;;;;;;;;26.80;31.17;99462.13;4843519;29;7203;-74
2023/07/15 02:51:23;;;;;;;;;;;;;;;26.78;30.97;99464.81;4843095;29;7315;-75
2023/07/15 02:53:50;;;;;;;;;;;;;;;26.78;30.93;99463.97;4840555;29;6804;-73
2023/07/15 02:56:15;;;;;;;;;;;;;;;26.75;30.84;99465.78;4822737;29;9927;-74
2023/07/15 02:58:41;;;;;;;;;;;;;;;26.74;30.98;99463.22;4847097;29;6890;-73
2023/07/15 03:01:09;;;;;;;;;;;;;;;26.71;31.19;99471.22;4864338;29;6930;-74
2023/07/15 03:03:37;;;;;;;;;;;;;;;26.69;31.17;99467.75;4847012;29;7150;-73
2023/07/15 03:06:02;;;;;;;;;;;;;;;26.61;30.93;99466.25;4848474;29;7201;-73
2023/07/15 03:08:29;;;;;;;;;;;;;;;26.57;31.37;99466.41;4846803;29;6781;-73
2023/07/15 03:10:55;;;;;;;;;;;;;;;26.52;31.43;99465.69;4846977;29;7217;-73
2023/07/15 03:13:20;;;;;;;;;;;;;;;26.48;31.50;99472.81;4827699;29;6954;-73
2023/07/15 03:15:47;;;;;;;;;;;;;;;26.45;31.32;99473.78;4861871;29;7060;-74
2023/07/15 03:18:12;;;;;;;;;;;;;;;26.41;31.86;99469.53;4845789;29;7333;-74
2023/07/15 03:20:38;;;;;;;;;;;;;;;26.36;31.81;99471.44;4863809;29;7107;-73
2023/07/15 03:23:03;;;;;;;;;;;;;;;26.32;31.47;99475.09;4865903;29;6773;-73
2023/07/15 03:25:29;;;;;;;;;;;;;;;26.28;32.04;99476.09;4849746;29;6780;-73
2023/07/15 03:27:55;;;;;;;;;;;;;;;26.23;31.66;99480.63;4847598;29;7393;-73
2023/07/15 03:30:21;;;;;;;;;;;;;;;26.15;31.83;99476.44;4850313;29;6741;-73
2023/07/15 03:32:47;;;;;;;;;;;;;;;26.07;32.20;99483.69;4847291;29;6941;-73
2023/07/15 03:35:12;;;;;;;;;;;;;;;25.98;32.58;99481.34;4832405;29;6841;-73
2023/07/15 03:37:41;;;;;;;;;;;;;;;25.89;32.50;99483.38;4854573;29;6857;-73
2023/07/15 03:40:08;;;;;;;;;;;;;;;25.78;32.25;99483.69;4831905;29;6970;-73
2023/07/15 03:42:36;;;;;;;;;;;;;;;25.69;33.02;99481.34;4869338;29;6876;-73
2023/07/15 03:45:03;;;;;;;;;;;;;;;25.60;33.39;99482.47;4849724;29;8564;-73
2023/07/15 03:47:28;;;;;;;;;;;;;;;25.52;32.95;99481.81;4844425;29;6793;-73
2023/07/15 03:49:54;;;;;;;;;;;;;;;25.45;33.59;99478.50;4832011;29;6926;-74
2023/07/15 03:52:20;;;;;;;;;;;;;;;25.40;33.27;99479.50;4846980;29;7144;-73
2023/07/15 03:54:45;;;;;;;;;;;;;;;25.34;34.07;99481.41;4846271;29;6914;-73
2023/07/15 03:57:11;;;;;;;;;;;;;;;25.29;34.26;99480.66;4862058;29;6757;-74
2023/07/15 03:59:37;;;;;;;;;;;;;;;25.27;34.24;99479.00;4866244;29;6756;-73
2023/07/15 04:02:03;;;;;;;;;;;;;;;25.23;34.51;99481.69;4838612;29;6785;-73
2023/07/15 04:04:29;;;;;;;;;;;;;;;25.21;34.43;99477.41;4840149;29;6859;-73
2023/07/15 04:06:55;;;;;;;;;;;;;;;25.18;34.44;99478.34;4852740;29;7132;-74
2023/07/15 04:09:21;;;;;;;;;;;;;;;25.17;34.59;99473.13;4846548;29;7208;-74
2023/07/15 04:11:47;;;;;;;;;;;;;;;25.16;34.96;99476.66;4845840;29;7157;-74
2023/07/15 04:14:12;;;;;;;;;;;;;;;25.19;34.67;99468.72;4847124;29;7142;-74
2023/07/15 04:16:38;;;;;;;;;;;;;;;25.21;34.57;99480.88;4829127;29;7029;-73
2023/07/15 04:19:04;;;;;;;;;;;;;;;25.23;34.71;99472.97;4843578;29;7192;-73
2023/07/15 04:21:30;;;;;;;;;;;;;;;25.25;34.98;99476.41;4864441;29;6768;-74
2023/07/15 04:23:55;;;;;;;;;;;;;;;25.28;34.95;99492.06;4862778;29;6956;-74
2023/07/15 04:26:22;;;;;;;;;;;;;;;25.33;34.95;99484.94;4843093;29;7006;-73
2023/07/15 04:28:51;;;;;;;;;;;;;;;25.46;35.17;99485.47;4870335;29;7396;-74
2023/07/15 04:31:18;;;;;;;;;;;;;;;25.62;35.11;99490.28;4845134;29;6777;-74
2023/07/15 04:33:45;;;;;;;;;;;;;;;25.81;34.73;99485.38;4848193;29;6968;-73
2023/07/15 04:36:10;;;;;;;;;;;;;;;25.99;34.93;99488.34;4842947;29;6902;-73
2023/07/15 04:38:36;;;;;;;;;;;;;;;26.16;34.24;99474.69;4845203;29;7056;-73
2023/07/15 04:41:01;;;;;;;;;;;;;;;26.33;34.50;99474.19;4861368;29;6775;-74
2023/07/15 04:43:27;;;;;;;;;;;;;;;26.47;34.24;99476.34;4848308;29;6984;-74
2023/07/15 04:45:52;;;;;;;;;;;;;;;26.62;34.43;99472.34;4848641;29;7017;-74
2023/07/15 04:48:18;;;;;;;;;;;;;;;26.76;34.39;99472.78;4847831;29;6805;-74
2023/07/15 04:50:44;;;;;;;;;;;;;;;26.92;34.23;99469.63;4848417;29;7266;-73
2023/07/15 04:53:10;;;;;;;;;;;;;;;27.05;34.00;99474.47;4850982;29;6869;-74
2023/07/15 04:55:36;;;;;;;;;;;;;;;27.15;33.77;99478.50;4829427;29;7135;-73
2023/07/15 04:58:01;;;;;;;;;;;;;;;27.26;34.07;99483.34;4850725;29;6792;-73
2023/07/15 05:00:27;;;;;;;;;;;;;;;27.35;33.89;99484.81;4864934;29;6827;-73
2023/07/15 05:02:53;;;;;;;;;;;;;;;27.44;33.90;99479.22;4849588;29;6949;-74
2023/07/15 05:05:18;;;;;;;;;;;;;;;27.57;34.02;99485.75;4844101;29;7097;-73
2023/07/15 05:07:44;;;;;;;;;;;;;;;27.68;33.75;99480.09;4848921;29;7320;-73
2023/07/15 05:10:10;;;;;;;;;;;;;;;27.82;33.73;99491.88;4843787;29;6753;-74
2023/07/15 05:12:36;;;;;;;;;;;;;;;27.95;33.47;99490.47;4858497;29;6857;-73
2023/07/15 05:15:03;;;;;;;;;;;;;;;28.10;33.51;99485.53;4843321;29;6870;-73
2023/07/15 05:17:28;;;;;;;;;;;;;;;28.23;33.27;99485.94;4842361;29;6828;-73
2023/07/15 05:19:54;;;;;;;;;;;;;;;28.37;33.61;99480.94;4845027;29;6761;-73
2023/07/15 05:22:19;;;;;;;;;;;;;;;28.56;33.50;99485.47;4845367;29;6895;-73
2023/07/15 05:24:45;;;;;;;;;;;;;;;28.72;32.86;99480.41;4843154;29;6829;-73
2023/07/15 05:27:10;;;;;;;;;;;;;;;28.77;32.76;99475.81;4839476;29;6845;-73
2023/07/15 05:29:37;;;;;;;;;;;;;;;28.81;32.95;99481.81;4848198;29;6859;-73
2023/07/15 05:32:03;;;;;;;;;;;;;;;28.89;33.24;99485.00;4853282;29;6793;-73
2023/07/15 05:34:29;;;;;;;;;;;;;;;28.97;33.05;99487.31;4848639;29;7270;-74
2023/07/15 05:36:54;;;;;;;;;;;;;;;29.02;32.55;99489.75;4859025;29;6812;-73
2023/07/15 05:39:20;;;;;;;;;;;;;;;29.09;33.08;99491.19;4860922;29;6844;-73
2023/07/15 05:41:45;;;;;;;;;;;;;;;29.22;32.63;99497.63;4862766;29;7176;-74
2023/07/15 05:44:11;;;;;;;;;;;;;;;29.39;32.97;99488.97;4862724;29;6780;-74
2023/07/15 05:46:37;;;;;;;;;;;;;;;29.55;32.31;99492.72;4847053;29;7030;-74
2023/07/15 05:49:04;;;;;;;;;;;;;;;29.68;32.47;99504.44;4859614;29;6813;-73
2023/07/15 05:51:31;;;;;;;;;;;;;;;29.86;32.11;99512.44;4851913;29;7233;-73
2023/07/15 05:53:57;;;;;;;;;;;;;;;29.99;32.26;99505.66;4868280;29;6966;-73
2023/07/15 05:56:23;;;;;;;;;;;;;;;30.04;31.56;99505.44;4857676;29;7183;-73
2023/07/15 05:58:49;;;;;;;;;;;;;;;30.00;31.51;99514.44;4847727;29;7387;-73
2023/07/15 06:01:14;;;;;;;;;;;;;;;29.93;31.30;99514.72;4842656;29;6955;-73
2023/07/15 06:03:40;;;;;;;;;;;;;;;29.85;31.45;99513.38;4843256;29;6748;-73
2023/07/15 06:06:05;;;;;;;;;;;;;;;29.75;31.50;99521.72;4861655;29;6916;-73
2023/07/15 06:08:33;;;;;;;;;;;;;;;29.65;32.11;99515.16;4827266;29;6961;-73
2023/07/15 06:10:59;;;;;;;;;;;;;;;29.58;31.29;99519.84;4849460;29;6813;-73
2023/07/15 06:13:25;;;;;;;;;;;;;;;29.53;32.17;99511.28;4828831;29;7419;-73
2023/07/15 06:15:50;;;;;;;;;;;;;;;29.50;31.72;99496.44;4851237;29;6793;-73
2023/07/15 06:18:17;;;;;;;;;;;;;;;29.45;32.00;99516.06;4848972;29;7175;-73
2023/07/15 06:20:46;;;;;;;;;;;;;;;29.41;32.12;99512.66;4862825;29;6773;-73
2023/07/15 06:23:11;;;;;;;;;;;;;;;29.39;32.47;99517.16;4846613;29;7230;-73
2023/07/15 06:25:37;;;;;;;;;;;;;;;29.37;32.27;99522.50;4859867;29;7127;-73
2023/07/15 06:28:03;;;;;;;;;;;;;;;29.36;32.18;99533.13;4845306;29;6772;-73
2023/07/15 06:30:28;;;;;;;;;;;;;;;29.36;31.71;99525.22;4840465;29;6780;-73
2023/07/15 06:32:54;;;;;;;;;;;;;;;29.40;32.08;99526.78;4841409;29;6798;-73
2023/07/15 06:35:20;;;;;;;;;;;;;;;29.53;32.54;99527.13;4848807;29;6955;-73
2023/07/15 06:37:49;;;;;;;;;;;;;;;29.69;31.95;99522.00;4828707;29;6944;-73
2023/07/15 06:40:16;;;;;;;;;;;;;;;29.87;32.41;99509.72;4851348;29;6789;-73
2023/07/15 06:42:46;;;;;;;;;;;;;;;30.03;31.65;99504.56;4849483;29;6793;-72
2023/07/15 06:45:12;;;;;;;;;;;;;;;30.20;32.27;99490.59;4862172;29;7182;-71
2023/07/15 06:47:38;;;;;;;;;;;;;;;30.27;31.64;99507.00;4867523;29;6914;-74
2023/07/15 06:50:04;;;;;;;;;;;;;;;30.24;31.53;99517.72;4860580;29;6792;-73
2023/07/15 06:52:29;;;;;;;;;;;;;;;30.14;30.97;99521.75;4844065;29;6768;-70
2023/07/15 06:54:54;;;;;;;;;;;;;;;30.03;31.35;99520.41;4845594;29;6773;-72
2023/07/15 06:57:20;;;;;;;;;;;;;;;29.92;32.01;99528.00;4846941;29;7195;-71
2023/07/15 06:59:47;;;;;;;;;;;;;;;29.84;31.04;99533.63;4860406;29;6875;-73
2023/07/15 07:02:13;;;;;;;;;;;;;;;29.76;31.66;99522.56;4844265;29;6813;-71
2023/07/15 07:04:38;;;;;;;;;;;;;;;29.71;31.36;99509.59;4845573;29;6824;-72
2023/07/15 07:07:04;;;;;;;;;;;;;;;29.67;32.20;99510.66;4829638;29;6959;-70
2023/07/15 07:09:29;;;;;;;;;;;;;;;29.63;32.28;99517.84;4840950;29;6768;-71
2023/07/15 07:11:55;;;;;;;;;;;;;;;29.64;31.66;99516.06;4860347;29;7463;-71
2023/07/15 07:14:20;;;;;;;;;;;;;;;29.68;31.67;99519.41;4842494;29;6781;-70
2023/07/15 07:16:46;;;;;;;;;;;;;;;29.71;32.69;99520.13;4859808;29;6820;-70
2023/07/15 07:19:11;;;;;;;;;;;;;;;29.78;32.67;99511.03;4842008;29;6785;-70
2023/07/15 07:21:38;;;;;;;;;;;;;;;29.94;32.35;99503.22;4856662;29;6970;-71
2023/07/15 07:24:04;;;;;;;;;;;;;;;30.16;32.57;99493.47;4846485;29;7261;-70
2023/07/15 07:26:29;;;;;;;;;;;;;;;30.29;31.98;99506.94;4845104;29;6756;-70
2023/07/15 07:28:55;;;;;;;;;;;;;;;30.31;32.21;99519.13;4842919;29;6932;-70
2023/07/15 07:31:21;;;;;;;;;;;;;;;30.29;31.48;99528.09;4824122;29;6944;-72
2023/07/15 07:33:47;;;;;;;;;;;;;;;30.24;32.31;99527.44;4859388;29;6785;-72
2023/07/15 07:36:12;;;;;;;;;;;;;;;30.21;32.70;99526.66;4825584;29;6801;-70
2023/07/15 07:38:38;;;;;;;;;;;;;;;30.26;31.79;99526.44;4838551;29;7536;-70
2023/07/15 07:41:05;;;;;;;;;;;;;;;30.45;32.60;99520.25;4842223;29;6953;-73
2023/07/15 07:43:31;;;;;;;;;;;;;;;30.78;33.11;99522.19;4863008;29;7308;-70
2023/07/15 07:45:57;;;;;;;;;;;;;;;31.03;31.82;99516.50;4858465;29;8596;-71
2023/07/15 07:48:22;;;;;;;;;;;;;;;31.21;31.77;99520.94;4857921;29;7000;-72
2023/07/15 07:50:48;;;;;;;;;;;;;;;31.38;31.92;99525.34;4843469;29;6776;-71
2023/07/15 07:53:13;;;;;;;;;;;;;;;31.58;31.77;99516.31;4843187;29;6788;-73
2023/07/15 07:55:39;;;;;;;;;;;;;;;31.68;31.34;99520.22;4845393;29;6800;-68
2023/07/15 07:58:04;;;;;;;;;;;;;;;31.68;31.03;99522.00;4854957;29;6908;-69
2023/07/15 08:00:30;;;;;;;;;;;;;;;31.64;31.35;99518.66;4823685;29;6939;-73
2023/07/15 08:02:55;;;;;;;;;;;;;;;31.57;31.61;99530.50;4841388;29;6943;-70
2023/07/15 08:05:21;;;;;;;;;;;;;;;31.47;31.67;99522.22;4843767;29;6788;-71
2023/07/15 08:07:46;;;;;;;;;;;;;;;31.40;31.71;99544.66;4841583;29;6958;-71
2023/07/15 08:10:12;;;;;;;;;;;;;;;31.39;31.79;99558.81;4822450;29;7199;-67
2023/07/15 08:12:37;;;;;;;;;;;;;;;31.35;31.76;99560.78;4843968;29;6840;-68
2023/07/15 08:15:03;;;;;;;;;;;;;;;31.29;32.43;99558.44;4863220;29;6960;-70
2023/07/15 08:17:29;;;;;;;;;;;;;;;31.21;32.42;99569.41;4841622;29;6812;-72
2023/07/15 08:19:54;;;;;;;;;;;;;;;31.06;32.12;99555.16;4843212;29;6777;-72
2023/07/15 08:22:20;;;;;;;;;;;;;;;30.92;32.73;99568.25;4842390;29;6838;-72
2023/07/15 08:24:45;;;;;;;;;;;;;;;30.71;33.70;99566.59;4843245;29;7068;-71
2023/07/15 08:27:11;;;;;;;;;;;;;;;30.55;33.32;99563.81;4841585;29;7019;-69
2023/07/15 08:29:36;;;;;;;;;;;;;;;30.38;34.36;99567.28;4843400;29;6832;-71
2023/07/15 08:32:02;;;;;;;;;;;;;;;30.26;34.49;99573.13;4841319;29;6833;-71
2023/07/15 08:34:28;;;;;;;;;;;;;;;30.14;34.97;99564.84;4838976;29;8874;-70
2023/07/15 08:36:53;;;;;;;;;;;;;;;30.06;35.46;99580.22;4841265;29;6980;-73
2023/07/15 08:39:19;;;;;;;;;;;;;;;29.98;35.71;99585.81;4839351;29;6859;-73
2023/07/15 08:41:44;;;;;;;;;;;;;;;29.92;35.38;99586.97;4837724;29;6765;-73
2023/07/15 08:44:10;;;;;;;;;;;;;;;29.85;36.19;99580.25;4864294;29;6868;-73
2023/07/15 08:46:37;;;;;;;;;;;;;;;29.76;36.24;99592.09;4861832;29;6801;-70
2023/07/15 08:49:03;;;;;;;;;;;;;;;29.64;37.13;99604.03;4825895;29;6996;-70
2023/07/15 08:51:31;;;;;;;;;;;;;;;29.49;37.19;99610.84;4865117;29;6932;-72
2023/07/15 08:54:00;;;;;;;;;;;;;;;29.32;37.88;99618.59;4838366;29;7599;-70
2023/07/15 08:56:27;;;;;;;;;;;;;;;29.16;37.73;99621.88;4825695;29;7306;-72
2023/07/15 08:58:53;;;;;;;;;;;;;;;29.01;38.34;99627.81;4843201;29;6792;-72
2023/07/15 09:01:19;;;;;;;;;;;;;;;28.87;38.02;99621.31;4859016;29;7248;-70
2023/07/15 09:03:46;;;;;;;;;;;;;;;28.77;38.71;99633.13;4863770;29;6938;-70
2023/07/15 09:06:14;;;;;;;;;;;;;;;28.72;39.27;99628.03;4842696;29;7155;-70
2023/07/15 09:08:42;;;;;;;;;;;;;;;28.67;39.32;99612.41;4842517;29;6820;-70
2023/07/15 09:11:11;;;;;;;;;;;;;;;28.57;39.78;99616.31;4825725;29;7153;-71
2023/07/15 09:13:37;;;;;;;;;;;;;;;28.46;39.99;99618.50;4840803;29;6957;-71
2023/07/15 09:16:03;;;;;;;;;;;;;;;28.34;40.08;99633.00;4857953;29;6929;-71
2023/07/15 09:18:29;;;;;;;;;;;;;;;28.19;41.04;99624.78;4837000;29;6931;-72
2023/07/15 09:21:09;;;;;;;;;;;;;;;28.03;41.26;99621.84;4836709;29;7636;-72
2023/07/15 09:23:37;;;;;;;;;;;;;;;27.91;41.51;99638.06;4841517;29;6868;-72
2023/07/15 09:26:05;;;;;;;;;;;;;;;27.80;42.04;99639.31;4834690;29;7442;-70
2023/07/15 09:28:30;;;;;;;;;;;;;;;27.72;42.28;99628.25;4838749;29;6979;-71
2023/07/15 09:30:57;;;;;;;;;;;;;;;27.65;43.04;99601.25;4839432;29;6935;-70
2023/07/15 09:33:48;;;;;;;;;;;;;;;27.59;43.28;99591.81;4843894;29;6869;-70
2023/07/15 09:36:14;;;;;;;;;;;;;;;27.54;43.99;99614.81;4839579;29;7048;-71
2023/07/15 09:38:39;;;;;;;;;;;;;;;27.57;44.41;99613.81;4826399;29;6946;-71
2023/07/15 09:41:08;;;;;;;;;;;;;;;27.64;44.76;99611.84;4854577;29;6776;-73
2023/07/15 09:43:49;;;;;;;;;;;;;;;27.70;44.58;99604.59;4843091;29;6812;-71
2023/07/15 09:46:17;;;;;;;;;;;;;;;27.78;44.65;99598.19;4838948;29;6808;-70
2023/07/15 09:48:47;;;;;;;;;;;;;;;27.85;44.55;99597.91;4841270;29;6797;-70
2023/07/15 09:51:15;;;;;;;;;;;;;;;27.95;44.56;99597.56;4853849;29;6841;-71
2023/07/15 09:53:49;;;;;;;;;;;;;;;27.98;44.14;99590.41;4846534;29;6985;-70
2023/07/15 09:56:18;;;;;;;;;;;;;;;28.05;44.91;99598.94;4857317;29;6966;-70
2023/07/15 09:58:46;;;;;;;;;;;;;;;28.20;44.87;99591.41;4857234;29;6789;-69
2023/07/15 10:01:32;;;;;;;;;;;;;;;28.63;44.72;99607.31;4842286;29;6796;-70
2023/07/15 10:04:01;;;;;;;;;;;;;;;29.02;43.53;99611.06;4862213;29;6804;-70
2023/07/15 10:06:28;;;;;;;;;;;;;;;29.36;43.43;99604.38;4845064;29;7390;-72
2023/07/15 10:08:55;;;;;;;;;;;;;;;29.70;42.83;99620.53;4863876;29;7167;-70
2023/07/15 10:11:21;;;;;;;;;;;;;;;30.06;42.44;99615.41;4846136;29;6801;-69
2023/07/15 10:13:46;;;;;;;;;;;;;;;30.52;42.34;99621.25;4846403;29;6926;-70
2023/07/15 10:16:12;;;;;;;;;;;;;;;31.18;42.32;99612.75;4862577;29;6975;-72
2023/07/15 10:18:38;;;;;;;;;;;;;;;31.90;39.81;99603.84;4867047;29;6781;-70
2023/07/15 10:21:05;;;;;;;;;;;;;;;32.44;39.45;99605.31;4849296;29;6765;-70
2023/07/15 10:23:32;;;;;;;;;;;;;;;32.67;38.49;99605.84;4847676;29;6789;-71
2023/07/15 10:26:06;;;;;;;;;;;;;;;32.70;37.95;99600.34;4865799;29;7418;-68
2023/07/15 10:28:37;;;;;;;;;;;;;;;33.04;38.06;99595.78;4848150;29;7057;-70
2023/07/15 10:31:05;;;;;;;;;;;;;;;33.66;37.70;99600.06;4842920;29;6899;-69
2023/07/15 10:33:31;;;;;;;;;;;;;;;34.31;35.96;99599.66;4846506;29;6776;-70
2023/07/15 10:35:56;;;;;;;;;;;;;;;34.32;35.27;99601.34;4843616;29;6936;-69
2023/07/15 10:38:27;;;;;;;;;;;;;;;33.89;35.14;99611.03;4841706;29;6757;-70
2023/07/15 10:40:57;;;;;;;;;;;;;;;33.39;35.35;99613.19;4847803;29;7303;-70
2023/07/15 10:43:35;;;;;;;;;;;;;;;32.99;35.39;99626.19;4844271;29;6801;-71
2023/07/15 10:46:16;;;;;;;;;;;;;;;32.69;36.26;99625.16;4850934;29;6969;-71
2023/07/15 10:48:42;;;;;;;;;;;;;;;32.50;36.72;99618.25;4843892;29;6814;-71
2023/07/15 10:51:09;;;;;;;;;;;;;;;32.38;37.02;99624.25;4845581;29;6769;-72
2023/07/15 10:53:36;;;;;;;;;;;;;;;32.37;36.68;99619.91;4845031;29;6909;-72
2023/07/15 10:56:04;;;;;;;;;;;;;;;32.53;37.21;99633.97;4842263;29;6996;-72
2023/07/15 10:58:32;;;;;;;;;;;;;;;32.95;36.89;99629.00;4844104;29;7878;-72
2023/07/15 11:01:09;;;;;;;;;;;;;;;33.35;36.15;99628.44;4844354;29;7052;-71
2023/07/15 11:03:43;;;;;;;;;;;;;;;33.41;35.87;99621.06;4858380;29;6809;-71
2023/07/15 11:06:10;;;;;;;;;;;;;;;33.31;35.95;99631.38;4846781;29;7064;-72
2023/07/15 11:08:36;;;;;;;;;;;;;;;33.21;36.15;99639.03;4842113;29;6793;-73
2023/07/15 11:11:06;;;;;;;;;;;;;;;33.14;35.99;99637.69;4848743;29;7226;-72
2023/07/15 11:13:35;;;;;;;;;;;;;;;33.01;36.10;99634.91;4845160;29;6801;-72
2023/07/15 11:16:02;;;;;;;;;;;;;;;32.84;36.05;99628.75;4845748;29;7236;-73
2023/07/15 11:18:27;;;;;;;;;;;;;;;32.73;36.55;99636.47;4843890;29;6781;-72
2023/07/15 11:20:56;;;;;;;;;;;;;;;32.62;36.61;99629.09;4846002;29;6858;-71
2023/07/15 11:23:22;;;;;;;;;;;;;;;32.41;36.31;99627.59;4845063;29;6841;-73
2023/07/15 11:25:48;;;;;;;;;;;;;;;32.21;36.90;99623.34;4845788;29;6982;-73
2023/07/15 11:28:16;;;;;;;;;;;;;;;32.02;37.01;99626.16;4840438;29;6812;-71
2023/07/15 11:30:44;;;;;;;;;;;;;;;31.83;37.05;99632.44;4837797;29;7224;-72
2023/07/15 11:33:11;;;;;;;;;;;;;;;31.71;36.87;99639.22;4842863;29;6796;-73
2023/07/15 11:35:38;;;;;;;;;;;;;;;31.58;37.47;99625.75;4826244;29;7188;-71
2023/07/15 11:38:15;;;;;;;;;;;;;;;31.40;37.63;99624.94;4860233;29;6925;-71
2023/07/15 11:40:54;;;;;;;;;;;;;;;31.19;38.31;99624.19;4859726;29;7249;-72
2023/07/15 11:43:25;;;;;;;;;;;;;;;30.98;38.12;99619.06;4825379;29;7223;-72
2023/07/15 11:45:56;;;;;;;;;;;;;;;30.87;39.03;99616.94;4845370;29;6812;-73
2023/07/15 11:48:23;;;;;;;;;;;;;;;30.85;39.26;99613.50;4842384;29;6789;-72
2023/07/15 11:50:49;;;;;;;;;;;;;;;30.83;39.15;99609.22;4846149;29;6987;-73
2023/07/15 11:53:32;;;;;;;;;;;;;;;30.83;39.29;99610.09;4845848;29;7367;-72
2023/07/15 11:55:58;;;;;;;;;;;;;;;30.90;39.87;99616.81;4842015;29;7191;-71
2023/07/15 11:58:56;;;;;;;;;;;;;;;31.06;40.00;99618.66;4843013;29;7354;-72
2023/07/15 12:01:25;;;;;;;;;;;;;;;31.25;39.40;99604.53;4832538;29;6846;-74
2023/07/15 12:03:52;;;;;;;;;;;;;;;31.46;39.59;99605.22;4843621;29;7027;-71
2023/07/15 12:06:20;;;;;;;;;;;;;;;31.72;39.51;99592.38;4859673;29;6975;-73
2023/07/15 12:09:04;;;;;;;;;;;;;;;32.33;39.03;99586.50;4824773;29;6995;-72
2023/07/15 12:11:30;;;;;;;;;;;;;;;32.70;37.76;99584.44;4858019;29;7045;-71
2023/07/15 12:13:56;;;;;;;;;;;;;;;33.02;37.10;99572.94;4840730;29;7007;-73
2023/07/15 12:16:23;;;;;;;;;;;;;;;33.35;37.22;99566.53;4856355;29;7294;-75
2023/07/15 12:18:49;;;;;;;;;;;;;;;33.90;36.55;99569.41;4840862;29;6841;-72
2023/07/15 12:21:15;;;;;;;;;;;;;;;34.42;35.49;99567.88;4841584;29;7155;-71
2023/07/15 12:23:42;;;;;;;;;;;;;;;34.56;34.75;99571.47;4845797;29;7197;-72
2023/07/15 12:26:07;;;;;;;;;;;;;;;34.81;34.65;99564.53;4856067;29;6972;-72
2023/07/15 12:28:33;;;;;;;;;;;;;;;34.94;34.32;99575.19;4860744;29;6768;-71
2023/07/15 12:30:59;;;;;;;;;;;;;;;35.08;34.33;99576.97;4858295;29;6774;-72
2023/07/15 12:33:24;;;;;;;;;;;;;;;35.09;34.20;99573.34;4858772;29;6994;-72
2023/07/15 12:35:50;;;;;;;;;;;;;;;35.03;33.73;99554.13;4841718;29;7219;-72
2023/07/15 12:38:16;;;;;;;;;;;;;;;35.00;33.50;99559.66;4856287;29;6789;-71
2023/07/15 12:40:41;;;;;;;;;;;;;;;35.09;33.30;99557.34;4856295;29;6768;-72
2023/07/15 12:43:07;;;;;;;;;;;;;;;35.03;32.51;99511.53;4855303;29;6967;-75
2023/07/15 12:45:32;;;;;;;;;;;;;;;34.83;33.02;99541.31;4861887;29;7250;-75
2023/07/15 12:47:58;;;;;;;;;;;;;;;34.88;32.66;99544.53;4856672;29;6776;-74
2023/07/15 12:50:30;;;;;;;;;;;;;;;34.86;32.29;99527.78;5081188;27;6696;-73
2023/07/15 12:52:56;;;;;;;;;;;;;;;34.66;32.49;99535.31;5053766;28;7323;-73
2023/07/15 12:55:21;;;;;;;;;;;;;;;34.41;33.30;99536.94;5036394;28;6771;-74